sensor_id;sensor_type;location;lat;lon;timestamp;P1;durP1;ratioP1;P2;durP2;ratioP2
4696;SDS011;2362;50.780;0.292;2023-08-06T00:00:08;16.38;;;5.25;;
4696;SDS011;2362;50.780;0.292;2023-08-06T00:02:34;10.75;;;5.97;;
4696;SDS011;2362;50.780;0.292;2023-08-06T00:05:00;20.70;;;6.10;;
4696;SDS011;2362;50.780;0.292;2023-08-06T00:07:26;11.02;;;5.78;;
4696;SDS011;2362;50.780;0.292;2023-08-06T00:09:52;14.15;;;5.65;;
4696;SDS011;2362;50.780;0.292;2023-08-06T00:12:17;15.23;;;6.00;;
4696;SDS011;2362;50.780;0.292;2023-08-06T00:14:43;16.08;;;5.60;;
4696;SDS011;2362;50.780;0.292;2023-08-06T00:17:10;16.67;;;6.00;;
4696;SDS011;2362;50.780;0.292;2023-08-06T00:19:35;15.93;;;6.20;;
4696;SDS011;2362;50.780;0.292;2023-08-06T00:22:01;11.05;;;5.45;;
4696;SDS011;2362;50.780;0.292;2023-08-06T00:24:27;8.50;;;5.40;;
4696;SDS011;2362;50.780;0.292;2023-08-06T00:26:53;11.23;;;5.32;;
4696;SDS011;2362;50.780;0.292;2023-08-06T00:29:18;10.48;;;4.88;;
4696;SDS011;2362;50.780;0.292;2023-08-06T00:31:44;18.55;;;4.57;;
4696;SDS011;2362;50.780;0.292;2023-08-06T00:34:10;7.82;;;4.40;;
4696;SDS011;2362;50.780;0.292;2023-08-06T00:36:35;14.48;;;4.97;;
4696;SDS011;2362;50.780;0.292;2023-08-06T00:39:01;8.85;;;4.78;;
4696;SDS011;2362;50.780;0.292;2023-08-06T00:41:27;11.48;;;4.28;;
4696;SDS011;2362;50.780;0.292;2023-08-06T00:43:53;10.75;;;4.05;;
4696;SDS011;2362;50.780;0.292;2023-08-06T00:46:19;12.80;;;4.10;;
4696;SDS011;2362;50.780;0.292;2023-08-06T00:48:45;7.72;;;4.15;;
4696;SDS011;2362;50.780;0.292;2023-08-06T00:51:12;7.07;;;3.83;;
4696;SDS011;2362;50.780;0.292;2023-08-06T00:53:38;9.82;;;3.40;;
4696;SDS011;2362;50.780;0.292;2023-08-06T00:56:04;10.10;;;3.38;;
4696;SDS011;2362;50.780;0.292;2023-08-06T00:58:31;10.18;;;3.67;;
4696;SDS011;2362;50.780;0.292;2023-08-06T01:00:57;7.50;;;3.33;;
4696;SDS011;2362;50.780;0.292;2023-08-06T01:03:23;9.43;;;3.38;;
4696;SDS011;2362;50.780;0.292;2023-08-06T01:05:48;7.18;;;3.17;;
4696;SDS011;2362;50.780;0.292;2023-08-06T01:13:48;5.45;;;2.78;;
4696;SDS011;2362;50.780;0.292;2023-08-06T01:16:19;6.32;;;3.03;;
4696;SDS011;2362;50.780;0.292;2023-08-06T01:18:46;8.05;;;2.85;;
4696;SDS011;2362;50.780;0.292;2023-08-06T01:21:14;7.65;;;2.63;;
4696;SDS011;2362;50.780;0.292;2023-08-06T01:23:44;7.63;;;3.05;;
4696;SDS011;2362;50.780;0.292;2023-08-06T01:26:19;4.30;;;2.90;;
4696;SDS011;2362;50.780;0.292;2023-08-06T01:28:51;8.05;;;3.00;;
4696;SDS011;2362;50.780;0.292;2023-08-06T01:31:24;7.68;;;2.33;;
4696;SDS011;2362;50.780;0.292;2023-08-06T01:33:56;6.65;;;2.90;;
4696;SDS011;2362;50.780;0.292;2023-08-06T01:36:23;7.13;;;2.22;;
4696;SDS011;2362;50.780;0.292;2023-08-06T01:38:51;6.03;;;2.22;;
4696;SDS011;2362;50.780;0.292;2023-08-06T01:41:18;9.68;;;2.25;;
4696;SDS011;2362;50.780;0.292;2023-08-06T01:43:44;4.75;;;2.00;;
4696;SDS011;2362;50.780;0.292;2023-08-06T01:46:10;5.68;;;2.00;;
4696;SDS011;2362;50.780;0.292;2023-08-06T01:48:35;4.90;;;1.95;;
4696;SDS011;2362;50.780;0.292;2023-08-06T01:51:03;3.63;;;1.90;;
4696;SDS011;2362;50.780;0.292;2023-08-06T01:53:30;4.30;;;1.85;;
4696;SDS011;2362;50.780;0.292;2023-08-06T01:55:57;6.50;;;1.90;;
4696;SDS011;2362;50.780;0.292;2023-08-06T01:58:23;4.43;;;2.05;;
4696;SDS011;2362;50.780;0.292;2023-08-06T02:00:48;6.80;;;2.60;;
4696;SDS011;2362;50.780;0.292;2023-08-06T02:03:14;3.08;;;1.75;;
4696;SDS011;2362;50.780;0.292;2023-08-06T02:05:40;7.47;;;1.88;;
4696;SDS011;2362;50.780;0.292;2023-08-06T02:08:05;11.73;;;2.05;;
4696;SDS011;2362;50.780;0.292;2023-08-06T02:10:31;4.88;;;1.38;;
4696;SDS011;2362;50.780;0.292;2023-08-06T02:12:57;4.00;;;1.40;;
4696;SDS011;2362;50.780;0.292;2023-08-06T02:15:23;5.40;;;2.08;;
4696;SDS011;2362;50.780;0.292;2023-08-06T02:17:48;7.13;;;1.85;;
4696;SDS011;2362;50.780;0.292;2023-08-06T02:20:14;10.00;;;2.05;;
4696;SDS011;2362;50.780;0.292;2023-08-06T02:22:39;5.80;;;2.42;;
4696;SDS011;2362;50.780;0.292;2023-08-06T02:25:05;5.05;;;2.08;;
4696;SDS011;2362;50.780;0.292;2023-08-06T02:27:31;7.78;;;2.13;;
4696;SDS011;2362;50.780;0.292;2023-08-06T02:29:56;4.47;;;2.03;;
4696;SDS011;2362;50.780;0.292;2023-08-06T02:32:22;5.53;;;2.13;;
4696;SDS011;2362;50.780;0.292;2023-08-06T02:34:48;9.20;;;2.15;;
4696;SDS011;2362;50.780;0.292;2023-08-06T02:37:13;12.25;;;2.03;;
4696;SDS011;2362;50.780;0.292;2023-08-06T02:39:41;9.57;;;2.08;;
4696;SDS011;2362;50.780;0.292;2023-08-06T02:42:07;7.00;;;2.45;;
4696;SDS011;2362;50.780;0.292;2023-08-06T02:44:33;8.35;;;2.85;;
4696;SDS011;2362;50.780;0.292;2023-08-06T02:46:59;7.43;;;2.58;;
4696;SDS011;2362;50.780;0.292;2023-08-06T02:49:25;10.55;;;3.00;;
4696;SDS011;2362;50.780;0.292;2023-08-06T02:51:51;11.75;;;3.45;;
4696;SDS011;2362;50.780;0.292;2023-08-06T02:54:17;9.75;;;3.17;;
4696;SDS011;2362;50.780;0.292;2023-08-06T02:56:43;11.65;;;3.20;;
4696;SDS011;2362;50.780;0.292;2023-08-06T02:59:10;14.52;;;3.22;;
4696;SDS011;2362;50.780;0.292;2023-08-06T03:01:36;12.27;;;3.00;;
4696;SDS011;2362;50.780;0.292;2023-08-06T03:04:02;9.25;;;4.13;;
4696;SDS011;2362;50.780;0.292;2023-08-06T03:06:28;9.63;;;3.40;;
4696;SDS011;2362;50.780;0.292;2023-08-06T03:08:54;11.73;;;3.17;;
4696;SDS011;2362;50.780;0.292;2023-08-06T03:11:20;6.88;;;3.22;;
4696;SDS011;2362;50.780;0.292;2023-08-06T03:13:46;9.57;;;3.35;;
4696;SDS011;2362;50.780;0.292;2023-08-06T03:16:12;19.20;;;4.03;;
4696;SDS011;2362;50.780;0.292;2023-08-06T03:18:38;12.20;;;3.88;;
4696;SDS011;2362;50.780;0.292;2023-08-06T03:21:03;8.35;;;3.05;;
4696;SDS011;2362;50.780;0.292;2023-08-06T03:23:29;10.45;;;3.78;;
4696;SDS011;2362;50.780;0.292;2023-08-06T03:25:55;7.93;;;3.10;;
4696;SDS011;2362;50.780;0.292;2023-08-06T03:28:20;12.60;;;3.10;;
4696;SDS011;2362;50.780;0.292;2023-08-06T03:30:47;11.52;;;3.03;;
4696;SDS011;2362;50.780;0.292;2023-08-06T03:33:13;6.82;;;3.33;;
4696;SDS011;2362;50.780;0.292;2023-08-06T03:35:39;12.85;;;4.03;;
4696;SDS011;2362;50.780;0.292;2023-08-06T03:38:04;16.77;;;3.08;;
4696;SDS011;2362;50.780;0.292;2023-08-06T03:40:30;14.48;;;3.92;;
4696;SDS011;2362;50.780;0.292;2023-08-06T03:42:56;14.38;;;3.97;;
4696;SDS011;2362;50.780;0.292;2023-08-06T03:45:22;8.48;;;3.72;;
4696;SDS011;2362;50.780;0.292;2023-08-06T03:47:47;8.13;;;3.20;;
4696;SDS011;2362;50.780;0.292;2023-08-06T03:50:13;9.52;;;3.17;;
4696;SDS011;2362;50.780;0.292;2023-08-06T03:52:39;9.32;;;3.78;;
4696;SDS011;2362;50.780;0.292;2023-08-06T03:55:04;8.55;;;3.83;;
4696;SDS011;2362;50.780;0.292;2023-08-06T03:57:30;13.45;;;3.30;;
4696;SDS011;2362;50.780;0.292;2023-08-06T03:59:56;7.15;;;2.92;;
4696;SDS011;2362;50.780;0.292;2023-08-06T04:02:21;13.35;;;3.50;;
4696;SDS011;2362;50.780;0.292;2023-08-06T04:04:47;9.55;;;3.35;;
4696;SDS011;2362;50.780;0.292;2023-08-06T04:07:13;7.03;;;3.00;;
4696;SDS011;2362;50.780;0.292;2023-08-06T04:09:55;14.13;;;3.97;;
4696;SDS011;2362;50.780;0.292;2023-08-06T04:12:25;10.63;;;3.53;;
4696;SDS011;2362;50.780;0.292;2023-08-06T04:14:51;11.13;;;3.67;;
4696;SDS011;2362;50.780;0.292;2023-08-06T04:17:17;23.73;;;4.70;;
4696;SDS011;2362;50.780;0.292;2023-08-06T04:19:48;9.52;;;3.88;;
4696;SDS011;2362;50.780;0.292;2023-08-06T04:22:18;10.43;;;3.60;;
4696;SDS011;2362;50.780;0.292;2023-08-06T04:24:43;7.75;;;3.22;;
4696;SDS011;2362;50.780;0.292;2023-08-06T04:27:09;6.43;;;3.63;;
4696;SDS011;2362;50.780;0.292;2023-08-06T04:29:36;14.05;;;3.40;;
4696;SDS011;2362;50.780;0.292;2023-08-06T04:32:01;7.68;;;3.88;;
4696;SDS011;2362;50.780;0.292;2023-08-06T04:34:29;7.05;;;3.28;;
4696;SDS011;2362;50.780;0.292;2023-08-06T04:36:54;12.50;;;3.70;;
4696;SDS011;2362;50.780;0.292;2023-08-06T04:39:20;12.57;;;3.65;;
4696;SDS011;2362;50.780;0.292;2023-08-06T04:41:45;10.50;;;3.60;;
4696;SDS011;2362;50.780;0.292;2023-08-06T04:44:11;9.30;;;3.97;;
4696;SDS011;2362;50.780;0.292;2023-08-06T04:46:37;10.20;;;3.83;;
4696;SDS011;2362;50.780;0.292;2023-08-06T04:49:02;10.95;;;4.13;;
4696;SDS011;2362;50.780;0.292;2023-08-06T04:51:28;12.00;;;3.97;;
4696;SDS011;2362;50.780;0.292;2023-08-06T04:53:54;9.35;;;3.25;;
4696;SDS011;2362;50.780;0.292;2023-08-06T04:56:21;7.57;;;3.45;;
4696;SDS011;2362;50.780;0.292;2023-08-06T04:58:47;5.88;;;2.92;;
4696;SDS011;2362;50.780;0.292;2023-08-06T05:01:13;6.10;;;2.97;;
4696;SDS011;2362;50.780;0.292;2023-08-06T05:03:38;14.98;;;4.15;;
4696;SDS011;2362;50.780;0.292;2023-08-06T05:06:04;14.80;;;3.65;;
4696;SDS011;2362;50.780;0.292;2023-08-06T05:08:30;11.45;;;4.72;;
4696;SDS011;2362;50.780;0.292;2023-08-06T05:10:55;11.45;;;3.42;;
4696;SDS011;2362;50.780;0.292;2023-08-06T05:13:21;11.13;;;3.35;;
4696;SDS011;2362;50.780;0.292;2023-08-06T05:15:46;8.30;;;3.72;;
4696;SDS011;2362;50.780;0.292;2023-08-06T05:18:12;9.55;;;3.08;;
4696;SDS011;2362;50.780;0.292;2023-08-06T05:20:38;13.85;;;3.72;;
4696;SDS011;2362;50.780;0.292;2023-08-06T05:23:06;9.10;;;4.13;;
4696;SDS011;2362;50.780;0.292;2023-08-06T05:25:34;7.82;;;3.88;;
4696;SDS011;2362;50.780;0.292;2023-08-06T05:27:59;13.18;;;3.35;;
4696;SDS011;2362;50.780;0.292;2023-08-06T05:30:26;9.18;;;3.70;;
4696;SDS011;2362;50.780;0.292;2023-08-06T05:32:52;12.13;;;4.13;;
4696;SDS011;2362;50.780;0.292;2023-08-06T05:35:18;10.13;;;3.83;;
4696;SDS011;2362;50.780;0.292;2023-08-06T05:37:43;10.35;;;2.55;;
4696;SDS011;2362;50.780;0.292;2023-08-06T05:40:09;8.75;;;3.83;;
4696;SDS011;2362;50.780;0.292;2023-08-06T05:42:35;8.65;;;2.90;;
4696;SDS011;2362;50.780;0.292;2023-08-06T05:45:00;9.27;;;3.20;;
4696;SDS011;2362;50.780;0.292;2023-08-06T05:47:26;12.20;;;3.53;;
4696;SDS011;2362;50.780;0.292;2023-08-06T05:49:52;5.35;;;2.92;;
4696;SDS011;2362;50.780;0.292;2023-08-06T05:52:17;10.40;;;3.05;;
4696;SDS011;2362;50.780;0.292;2023-08-06T05:54:43;9.55;;;3.50;;
4696;SDS011;2362;50.780;0.292;2023-08-06T05:57:08;12.00;;;3.92;;
4696;SDS011;2362;50.780;0.292;2023-08-06T05:59:34;8.75;;;3.08;;
4696;SDS011;2362;50.780;0.292;2023-08-06T06:02:00;9.18;;;3.55;;
4696;SDS011;2362;50.780;0.292;2023-08-06T06:04:25;8.43;;;2.58;;
4696;SDS011;2362;50.780;0.292;2023-08-06T06:06:51;7.60;;;2.92;;
4696;SDS011;2362;50.780;0.292;2023-08-06T06:09:16;10.80;;;2.40;;
4696;SDS011;2362;50.780;0.292;2023-08-06T06:11:42;4.90;;;2.70;;
4696;SDS011;2362;50.780;0.292;2023-08-06T06:14:08;12.73;;;3.50;;
4696;SDS011;2362;50.780;0.292;2023-08-06T06:16:34;6.53;;;3.10;;
4696;SDS011;2362;50.780;0.292;2023-08-06T06:18:59;5.05;;;2.75;;
4696;SDS011;2362;50.780;0.292;2023-08-06T06:21:25;13.27;;;3.20;;
4696;SDS011;2362;50.780;0.292;2023-08-06T06:23:51;9.10;;;2.97;;
4696;SDS011;2362;50.780;0.292;2023-08-06T06:26:19;8.35;;;2.85;;
4696;SDS011;2362;50.780;0.292;2023-08-06T06:28:45;9.80;;;2.92;;
4696;SDS011;2362;50.780;0.292;2023-08-06T06:31:10;8.73;;;2.72;;
4696;SDS011;2362;50.780;0.292;2023-08-06T06:33:36;5.00;;;2.50;;
4696;SDS011;2362;50.780;0.292;2023-08-06T06:36:02;5.45;;;2.42;;
4696;SDS011;2362;50.780;0.292;2023-08-06T06:38:32;8.75;;;2.67;;
4696;SDS011;2362;50.780;0.292;2023-08-06T06:40:58;4.43;;;2.42;;
4696;SDS011;2362;50.780;0.292;2023-08-06T06:43:25;6.38;;;2.60;;
4696;SDS011;2362;50.780;0.292;2023-08-06T06:45:57;5.18;;;2.75;;
4696;SDS011;2362;50.780;0.292;2023-08-06T06:48:25;12.25;;;3.28;;
4696;SDS011;2362;50.780;0.292;2023-08-06T06:50:51;4.22;;;2.47;;
4696;SDS011;2362;50.780;0.292;2023-08-06T06:53:17;7.15;;;2.25;;
4696;SDS011;2362;50.780;0.292;2023-08-06T06:55:42;6.03;;;2.42;;
4696;SDS011;2362;50.780;0.292;2023-08-06T06:58:08;9.32;;;2.72;;
4696;SDS011;2362;50.780;0.292;2023-08-06T07:00:35;13.45;;;2.83;;
4696;SDS011;2362;50.780;0.292;2023-08-06T07:03:02;7.55;;;2.72;;
4696;SDS011;2362;50.780;0.292;2023-08-06T07:05:27;6.68;;;2.63;;
4696;SDS011;2362;50.780;0.292;2023-08-06T07:07:53;9.13;;;2.00;;
4696;SDS011;2362;50.780;0.292;2023-08-06T07:10:19;8.30;;;2.67;;
4696;SDS011;2362;50.780;0.292;2023-08-06T07:12:44;7.47;;;2.50;;
4696;SDS011;2362;50.780;0.292;2023-08-06T07:15:10;11.55;;;2.80;;
4696;SDS011;2362;50.780;0.292;2023-08-06T07:17:36;7.18;;;2.35;;
4696;SDS011;2362;50.780;0.292;2023-08-06T07:20:02;7.57;;;2.17;;
4696;SDS011;2362;50.780;0.292;2023-08-06T07:22:28;4.78;;;2.00;;
4696;SDS011;2362;50.780;0.292;2023-08-06T07:24:54;10.48;;;2.33;;
4696;SDS011;2362;50.780;0.292;2023-08-06T07:27:20;9.52;;;2.20;;
4696;SDS011;2362;50.780;0.292;2023-08-06T07:29:45;4.43;;;2.40;;
4696;SDS011;2362;50.780;0.292;2023-08-06T07:32:11;6.45;;;2.78;;
4696;SDS011;2362;50.780;0.292;2023-08-06T07:34:37;7.18;;;2.50;;
4696;SDS011;2362;50.780;0.292;2023-08-06T07:37:02;9.32;;;2.42;;
4696;SDS011;2362;50.780;0.292;2023-08-06T07:39:28;6.43;;;2.30;;
4696;SDS011;2362;50.780;0.292;2023-08-06T07:41:54;10.10;;;2.50;;
4696;SDS011;2362;50.780;0.292;2023-08-06T07:44:19;4.20;;;2.28;;
4696;SDS011;2362;50.780;0.292;2023-08-06T07:46:45;4.32;;;2.45;;
4696;SDS011;2362;50.780;0.292;2023-08-06T07:49:11;4.65;;;2.35;;
4696;SDS011;2362;50.780;0.292;2023-08-06T07:51:36;6.55;;;2.20;;
4696;SDS011;2362;50.780;0.292;2023-08-06T07:54:02;9.20;;;2.90;;
4696;SDS011;2362;50.780;0.292;2023-08-06T07:56:28;7.30;;;2.65;;
4696;SDS011;2362;50.780;0.292;2023-08-06T07:58:54;5.32;;;2.28;;
4696;SDS011;2362;50.780;0.292;2023-08-06T08:01:19;6.50;;;2.70;;
4696;SDS011;2362;50.780;0.292;2023-08-06T08:03:45;10.00;;;2.33;;
4696;SDS011;2362;50.780;0.292;2023-08-06T08:06:11;4.72;;;2.38;;
4696;SDS011;2362;50.780;0.292;2023-08-06T08:08:36;4.05;;;2.40;;
4696;SDS011;2362;50.780;0.292;2023-08-06T08:11:03;4.93;;;2.47;;
4696;SDS011;2362;50.780;0.292;2023-08-06T08:13:30;7.43;;;2.60;;
4696;SDS011;2362;50.780;0.292;2023-08-06T08:15:59;10.18;;;2.67;;
4696;SDS011;2362;50.780;0.292;2023-08-06T08:18:26;8.63;;;2.50;;
4696;SDS011;2362;50.780;0.292;2023-08-06T08:20:52;5.22;;;2.30;;
4696;SDS011;2362;50.780;0.292;2023-08-06T08:23:17;4.65;;;2.33;;
4696;SDS011;2362;50.780;0.292;2023-08-06T08:25:43;6.70;;;2.30;;
4696;SDS011;2362;50.780;0.292;2023-08-06T08:28:09;7.22;;;2.65;;
4696;SDS011;2362;50.780;0.292;2023-08-06T08:30:34;6.80;;;2.05;;
4696;SDS011;2362;50.780;0.292;2023-08-06T08:33:00;6.63;;;2.90;;
4696;SDS011;2362;50.780;0.292;2023-08-06T08:35:25;8.52;;;2.60;;
4696;SDS011;2362;50.780;0.292;2023-08-06T08:37:51;3.90;;;2.00;;
4696;SDS011;2362;50.780;0.292;2023-08-06T08:40:17;8.35;;;2.05;;
4696;SDS011;2362;50.780;0.292;2023-08-06T08:42:43;10.77;;;2.20;;
4696;SDS011;2362;50.780;0.292;2023-08-06T08:45:13;5.45;;;1.90;;
4696;SDS011;2362;50.780;0.292;2023-08-06T08:47:40;10.40;;;3.10;;
4696;SDS011;2362;50.780;0.292;2023-08-06T08:50:09;11.35;;;2.55;;
4696;SDS011;2362;50.780;0.292;2023-08-06T08:52:42;8.18;;;2.47;;
4696;SDS011;2362;50.780;0.292;2023-08-06T08:55:11;3.35;;;1.83;;
4696;SDS011;2362;50.780;0.292;2023-08-06T08:57:39;4.53;;;1.98;;
4696;SDS011;2362;50.780;0.292;2023-08-06T09:00:04;4.07;;;2.03;;
4696;SDS011;2362;50.780;0.292;2023-08-06T09:02:31;6.25;;;2.45;;
4696;SDS011;2362;50.780;0.292;2023-08-06T09:04:58;6.63;;;2.13;;
4696;SDS011;2362;50.780;0.292;2023-08-06T09:07:27;5.47;;;2.20;;
4696;SDS011;2362;50.780;0.292;2023-08-06T09:09:57;5.50;;;2.50;;
4696;SDS011;2362;50.780;0.292;2023-08-06T09:12:25;4.03;;;2.03;;
4696;SDS011;2362;50.780;0.292;2023-08-06T09:14:52;5.47;;;2.45;;
4696;SDS011;2362;50.780;0.292;2023-08-06T09:17:17;7.18;;;2.33;;
4696;SDS011;2362;50.780;0.292;2023-08-06T09:19:45;3.53;;;2.50;;
4696;SDS011;2362;50.780;0.292;2023-08-06T09:22:13;3.72;;;2.60;;
4696;SDS011;2362;50.780;0.292;2023-08-06T09:24:39;5.68;;;2.17;;
4696;SDS011;2362;50.780;0.292;2023-08-06T09:27:13;6.72;;;2.72;;
4696;SDS011;2362;50.780;0.292;2023-08-06T09:29:43;4.97;;;2.88;;
4696;SDS011;2362;50.780;0.292;2023-08-06T09:32:10;3.05;;;1.88;;
4696;SDS011;2362;50.780;0.292;2023-08-06T09:34:41;5.47;;;1.90;;
4696;SDS011;2362;50.780;0.292;2023-08-06T09:37:11;3.83;;;2.17;;
4696;SDS011;2362;50.780;0.292;2023-08-06T09:39:37;6.43;;;2.33;;
4696;SDS011;2362;50.780;0.292;2023-08-06T09:42:04;6.63;;;2.05;;
4696;SDS011;2362;50.780;0.292;2023-08-06T09:44:31;10.13;;;2.55;;
4696;SDS011;2362;50.780;0.292;2023-08-06T09:46:58;8.32;;;2.25;;
4696;SDS011;2362;50.780;0.292;2023-08-06T09:49:26;5.55;;;2.65;;
4696;SDS011;2362;50.780;0.292;2023-08-06T09:51:53;3.97;;;2.20;;
4696;SDS011;2362;50.780;0.292;2023-08-06T09:54:23;5.25;;;2.25;;
4696;SDS011;2362;50.780;0.292;2023-08-06T09:56:51;4.18;;;2.22;;
4696;SDS011;2362;50.780;0.292;2023-08-06T09:59:17;7.25;;;2.47;;
4696;SDS011;2362;50.780;0.292;2023-08-06T10:01:45;5.50;;;2.33;;
4696;SDS011;2362;50.780;0.292;2023-08-06T10:04:11;3.90;;;1.95;;
4696;SDS011;2362;50.780;0.292;2023-08-06T10:06:41;4.07;;;2.35;;
4696;SDS011;2362;50.780;0.292;2023-08-06T10:09:08;5.53;;;2.33;;
4696;SDS011;2362;50.780;0.292;2023-08-06T10:11:35;4.35;;;2.25;;
4696;SDS011;2362;50.780;0.292;2023-08-06T10:14:10;6.18;;;2.25;;
4696;SDS011;2362;50.780;0.292;2023-08-06T10:16:37;5.18;;;2.30;;
4696;SDS011;2362;50.780;0.292;2023-08-06T10:19:04;10.52;;;2.45;;
4696;SDS011;2362;50.780;0.292;2023-08-06T10:21:32;7.25;;;2.90;;
4696;SDS011;2362;50.780;0.292;2023-08-06T10:23:57;3.55;;;2.15;;
4696;SDS011;2362;50.780;0.292;2023-08-06T10:26:26;5.13;;;2.03;;
4696;SDS011;2362;50.780;0.292;2023-08-06T10:28:53;6.63;;;2.20;;
4696;SDS011;2362;50.780;0.292;2023-08-06T10:31:18;4.82;;;2.13;;
4696;SDS011;2362;50.780;0.292;2023-08-06T10:33:45;4.30;;;2.33;;
4696;SDS011;2362;50.780;0.292;2023-08-06T10:36:12;4.75;;;2.13;;
4696;SDS011;2362;50.780;0.292;2023-08-06T10:41:23;7.30;;;2.10;;
4696;SDS011;2362;50.780;0.292;2023-08-06T10:44:07;3.80;;;1.98;;
4696;SDS011;2362;50.780;0.292;2023-08-06T10:46:33;4.05;;;1.92;;
4696;SDS011;2362;50.780;0.292;2023-08-06T10:48:59;6.93;;;2.00;;
4696;SDS011;2362;50.780;0.292;2023-08-06T10:51:26;4.60;;;1.70;;
4696;SDS011;2362;50.780;0.292;2023-08-06T10:53:52;4.57;;;1.80;;
4696;SDS011;2362;50.780;0.292;2023-08-06T10:56:22;3.22;;;1.50;;
4696;SDS011;2362;50.780;0.292;2023-08-06T10:58:51;5.03;;;1.85;;
4696;SDS011;2362;50.780;0.292;2023-08-06T11:01:18;4.95;;;2.20;;
4696;SDS011;2362;50.780;0.292;2023-08-06T11:03:44;2.03;;;1.30;;
4696;SDS011;2362;50.780;0.292;2023-08-06T11:06:11;2.58;;;1.50;;
4696;SDS011;2362;50.780;0.292;2023-08-06T11:08:47;5.18;;;1.90;;
4696;SDS011;2362;50.780;0.292;2023-08-06T11:11:17;5.13;;;1.98;;
4696;SDS011;2362;50.780;0.292;2023-08-06T11:13:43;2.67;;;1.55;;
4696;SDS011;2362;50.780;0.292;2023-08-06T11:16:17;4.63;;;1.70;;
4696;SDS011;2362;50.780;0.292;2023-08-06T11:18:44;3.47;;;1.58;;
4696;SDS011;2362;50.780;0.292;2023-08-06T11:21:10;2.38;;;1.42;;
4696;SDS011;2362;50.780;0.292;2023-08-06T11:23:37;3.92;;;1.85;;
4696;SDS011;2362;50.780;0.292;2023-08-06T11:26:03;2.92;;;1.80;;
4696;SDS011;2362;50.780;0.292;2023-08-06T11:28:29;6.43;;;2.08;;
4696;SDS011;2362;50.780;0.292;2023-08-06T11:30:54;3.53;;;1.85;;
4696;SDS011;2362;50.780;0.292;2023-08-06T11:33:22;3.55;;;1.88;;
4696;SDS011;2362;50.780;0.292;2023-08-06T11:35:51;3.20;;;1.65;;
4696;SDS011;2362;50.780;0.292;2023-08-06T11:38:22;5.10;;;1.60;;
4696;SDS011;2362;50.780;0.292;2023-08-06T11:40:51;6.30;;;2.28;;
4696;SDS011;2362;50.780;0.292;2023-08-06T11:43:18;5.80;;;1.75;;
4696;SDS011;2362;50.780;0.292;2023-08-06T11:45:44;3.95;;;1.52;;
4696;SDS011;2362;50.780;0.292;2023-08-06T11:48:09;2.85;;;1.63;;
4696;SDS011;2362;50.780;0.292;2023-08-06T11:50:38;1.65;;;1.23;;
4696;SDS011;2362;50.780;0.292;2023-08-06T11:53:04;4.07;;;1.83;;
4696;SDS011;2362;50.780;0.292;2023-08-06T11:55:30;5.70;;;1.67;;
4696;SDS011;2362;50.780;0.292;2023-08-06T11:57:56;4.97;;;1.80;;
4696;SDS011;2362;50.780;0.292;2023-08-06T12:00:23;2.42;;;1.58;;
4696;SDS011;2362;50.780;0.292;2023-08-06T12:02:50;5.85;;;1.77;;
4696;SDS011;2362;50.780;0.292;2023-08-06T12:05:23;1.30;;;1.05;;
4696;SDS011;2362;50.780;0.292;2023-08-06T12:07:58;7.40;;;1.65;;
4696;SDS011;2362;50.780;0.292;2023-08-06T12:10:24;5.18;;;1.83;;
4696;SDS011;2362;50.780;0.292;2023-08-06T12:12:51;4.07;;;1.38;;
4696;SDS011;2362;50.780;0.292;2023-08-06T12:15:17;3.58;;;1.50;;
4696;SDS011;2362;50.780;0.292;2023-08-06T12:17:43;4.63;;;1.80;;
4696;SDS011;2362;50.780;0.292;2023-08-06T12:20:09;3.60;;;1.40;;
4696;SDS011;2362;50.780;0.292;2023-08-06T12:22:35;2.17;;;1.38;;
4696;SDS011;2362;50.780;0.292;2023-08-06T12:25:06;3.40;;;1.42;;
4696;SDS011;2362;50.780;0.292;2023-08-06T12:27:41;2.65;;;1.23;;
4696;SDS011;2362;50.780;0.292;2023-08-06T12:30:07;4.90;;;1.23;;
4696;SDS011;2362;50.780;0.292;2023-08-06T12:32:34;2.78;;;1.38;;
4696;SDS011;2362;50.780;0.292;2023-08-06T12:35:00;4.60;;;2.13;;
4696;SDS011;2362;50.780;0.292;2023-08-06T12:37:27;4.18;;;1.88;;
4696;SDS011;2362;50.780;0.292;2023-08-06T12:39:53;5.25;;;1.30;;
4696;SDS011;2362;50.780;0.292;2023-08-06T12:42:19;3.65;;;1.27;;
4696;SDS011;2362;50.780;0.292;2023-08-06T12:44:45;2.40;;;1.23;;
4696;SDS011;2362;50.780;0.292;2023-08-06T12:47:11;2.15;;;1.23;;
4696;SDS011;2362;50.780;0.292;2023-08-06T12:49:36;5.60;;;1.92;;
4696;SDS011;2362;50.780;0.292;2023-08-06T12:52:02;1.27;;;1.10;;
4696;SDS011;2362;50.780;0.292;2023-08-06T12:54:31;2.92;;;0.80;;
4696;SDS011;2362;50.780;0.292;2023-08-06T12:57:01;2.22;;;1.50;;
4696;SDS011;2362;50.780;0.292;2023-08-06T12:59:27;2.92;;;1.15;;
4696;SDS011;2362;50.780;0.292;2023-08-06T13:01:53;6.85;;;1.52;;
4696;SDS011;2362;50.780;0.292;2023-08-06T13:04:18;5.35;;;1.42;;
4696;SDS011;2362;50.780;0.292;2023-08-06T13:06:44;1.20;;;0.82;;
4696;SDS011;2362;50.780;0.292;2023-08-06T13:09:09;8.05;;;1.20;;
4696;SDS011;2362;50.780;0.292;2023-08-06T13:11:35;5.15;;;1.42;;
4696;SDS011;2362;50.780;0.292;2023-08-06T13:14:07;2.58;;;1.10;;
4696;SDS011;2362;50.780;0.292;2023-08-06T13:16:34;2.38;;;1.05;;
4696;SDS011;2362;50.780;0.292;2023-08-06T13:19:01;6.82;;;1.50;;
4696;SDS011;2362;50.780;0.292;2023-08-06T13:21:34;4.43;;;0.98;;
4696;SDS011;2362;50.780;0.292;2023-08-06T13:24:20;2.15;;;1.30;;
4696;SDS011;2362;50.780;0.292;2023-08-06T13:26:46;1.92;;;1.10;;
4696;SDS011;2362;50.780;0.292;2023-08-06T13:29:12;1.83;;;1.10;;
4696;SDS011;2362;50.780;0.292;2023-08-06T13:31:37;4.15;;;1.20;;
4696;SDS011;2362;50.780;0.292;2023-08-06T13:34:03;1.75;;;1.00;;
4696;SDS011;2362;50.780;0.292;2023-08-06T13:36:29;1.73;;;1.00;;
4696;SDS011;2362;50.780;0.292;2023-08-06T13:38:56;1.17;;;0.98;;
4696;SDS011;2362;50.780;0.292;2023-08-06T13:41:22;1.42;;;0.95;;
4696;SDS011;2362;50.780;0.292;2023-08-06T13:43:48;2.78;;;0.90;;
4696;SDS011;2362;50.780;0.292;2023-08-06T13:46:13;4.55;;;1.02;;
4696;SDS011;2362;50.780;0.292;2023-08-06T13:48:43;3.47;;;1.30;;
4696;SDS011;2362;50.780;0.292;2023-08-06T13:51:10;6.20;;;1.23;;
4696;SDS011;2362;50.780;0.292;2023-08-06T13:53:39;3.55;;;1.10;;
4696;SDS011;2362;50.780;0.292;2023-08-06T13:56:06;4.45;;;1.02;;
4696;SDS011;2362;50.780;0.292;2023-08-06T13:58:32;1.70;;;1.00;;
4696;SDS011;2362;50.780;0.292;2023-08-06T14:00:58;1.80;;;1.00;;
4696;SDS011;2362;50.780;0.292;2023-08-06T14:03:24;7.30;;;1.00;;
4696;SDS011;2362;50.780;0.292;2023-08-06T14:05:50;2.15;;;1.30;;
4696;SDS011;2362;50.780;0.292;2023-08-06T14:08:16;4.03;;;1.48;;
4696;SDS011;2362;50.780;0.292;2023-08-06T14:10:44;4.45;;;0.85;;
4696;SDS011;2362;50.780;0.292;2023-08-06T14:13:10;1.10;;;0.80;;
4696;SDS011;2362;50.780;0.292;2023-08-06T14:15:36;1.90;;;0.95;;
4696;SDS011;2362;50.780;0.292;2023-08-06T14:18:04;1.95;;;1.10;;
4696;SDS011;2362;50.780;0.292;2023-08-06T14:20:30;1.48;;;0.80;;
4696;SDS011;2362;50.780;0.292;2023-08-06T14:22:56;3.08;;;1.00;;
4696;SDS011;2362;50.780;0.292;2023-08-06T14:25:22;1.33;;;1.08;;
4696;SDS011;2362;50.780;0.292;2023-08-06T14:27:47;2.05;;;0.85;;
4696;SDS011;2362;50.780;0.292;2023-08-06T14:30:13;11.48;;;1.77;;
4696;SDS011;2362;50.780;0.292;2023-08-06T14:32:39;2.78;;;1.10;;
4696;SDS011;2362;50.780;0.292;2023-08-06T14:35:04;5.60;;;0.90;;
4696;SDS011;2362;50.780;0.292;2023-08-06T14:37:30;2.85;;;1.10;;
4696;SDS011;2362;50.780;0.292;2023-08-06T14:39:56;3.13;;;1.10;;
4696;SDS011;2362;50.780;0.292;2023-08-06T14:42:22;3.88;;;1.33;;
4696;SDS011;2362;50.780;0.292;2023-08-06T14:44:47;3.22;;;1.27;;
4696;SDS011;2362;50.780;0.292;2023-08-06T14:47:13;2.22;;;1.00;;
4696;SDS011;2362;50.780;0.292;2023-08-06T14:49:39;1.38;;;0.88;;
4696;SDS011;2362;50.780;0.292;2023-08-06T14:52:05;9.18;;;1.13;;
4696;SDS011;2362;50.780;0.292;2023-08-06T14:54:31;1.42;;;0.90;;
4696;SDS011;2362;50.780;0.292;2023-08-06T14:56:57;2.63;;;1.05;;
4696;SDS011;2362;50.780;0.292;2023-08-06T14:59:22;2.63;;;1.02;;
4696;SDS011;2362;50.780;0.292;2023-08-06T15:01:48;2.67;;;1.05;;
4696;SDS011;2362;50.780;0.292;2023-08-06T15:04:14;3.88;;;1.10;;
4696;SDS011;2362;50.780;0.292;2023-08-06T15:06:39;1.13;;;0.90;;
4696;SDS011;2362;50.780;0.292;2023-08-06T15:09:05;1.60;;;1.10;;
4696;SDS011;2362;50.780;0.292;2023-08-06T15:11:32;2.80;;;1.08;;
4696;SDS011;2362;50.780;0.292;2023-08-06T15:13:57;1.88;;;0.85;;
4696;SDS011;2362;50.780;0.292;2023-08-06T15:16:25;1.40;;;0.88;;